Sisimiut, Greenland
Current Conditions -  °F | °C
As of 8:50 AM on Sunday 21 Dec 2014 (Local Time) from BGSF Reporting Station
Light Snow Light Snow  
Wind Chill: -15°   Ceiling: 5500
Heat Index: -4°   Visibility: 6mi
Dew Point: -8°   Wind: 5mph
Humidity: 85%   Direction: 50°NE
Pressure: 29.85"   Gusts: NA
Location:  66.92°N, 53.66°W
Report Text: BGSF 211050Z AUTO 05004KT 9999NDV -SG OVC055/// M20/M22 Q1011
Loading
Personal Weather Stations






























Interactive Weather Map New forecast layout! Learn more

10-Day Weather Forecast

Advertisements
Track Severe Weather on mobile